createdAt,value
2023-03-06T00:00:38.092Z,30.27
2023-03-06T00:03:05.411Z,32.25
2023-03-06T00:05:32.205Z,29.52
2023-03-06T00:07:58.962Z,27.48
2023-03-06T00:10:29.857Z,30.48
2023-03-06T00:12:58.620Z,30.02
2023-03-06T00:15:26.193Z,30.88
2023-03-06T00:17:53.683Z,42.28
2023-03-06T00:20:21.060Z,33.40
2023-03-06T00:22:48.163Z,31.13
2023-03-06T00:25:20.567Z,31.00
2023-03-06T00:27:47.604Z,39.20
2023-03-06T00:30:19.468Z,28.35
2023-03-06T00:32:46.163Z,31.95
2023-03-06T00:35:13.508Z,34.63
2023-03-06T00:37:43.110Z,27.50
2023-03-06T00:40:12.969Z,33.88
2023-03-06T00:42:39.693Z,33.38
2023-03-06T00:45:06.947Z,35.22
2023-03-06T00:47:33.651Z,44.00
2023-03-06T00:50:00.330Z,38.45
2023-03-06T00:52:26.976Z,43.90
2023-03-06T00:54:53.753Z,40.55
2023-03-06T00:57:20.409Z,38.58
2023-03-06T00:59:47.150Z,42.35
2023-03-06T01:02:13.937Z,35.88
2023-03-06T01:04:40.801Z,38.25
2023-03-06T01:07:07.481Z,37.42
2023-03-06T01:09:34.150Z,34.00
2023-03-06T01:12:00.796Z,34.45
2023-03-06T01:14:27.829Z,35.03
2023-03-06T01:16:54.495Z,39.00
2023-03-06T01:19:21.156Z,34.08
2023-03-06T01:21:47.949Z,35.13
2023-03-06T01:24:14.597Z,39.08
2023-03-06T01:26:41.269Z,40.50
2023-03-06T01:29:07.893Z,42.13
2023-03-06T01:31:34.668Z,40.25
2023-03-06T01:34:01.517Z,38.28
2023-03-06T01:36:28.284Z,40.72
2023-03-06T01:38:55.025Z,40.30
2023-03-06T01:41:21.961Z,38.95
2023-03-06T01:43:48.894Z,38.33
2023-03-06T01:46:33.830Z,32.90
2023-03-06T01:49:08.119Z,30.63
2023-03-06T01:51:41.381Z,31.48
2023-03-06T01:54:31.199Z,30.63
2023-03-06T01:57:01.957Z,19.75
2023-03-06T01:59:29.696Z,22.80
2023-03-06T02:01:58.660Z,23.35
2023-03-06T02:04:25.337Z,15.88
2023-03-06T02:06:52.045Z,21.58
2023-03-06T02:09:18.787Z,12.63
2023-03-06T02:11:46.330Z,14.57
2023-03-06T02:14:15.566Z,12.07
2023-03-06T02:16:43.061Z,12.80
2023-03-06T02:19:23.593Z,11.27
2023-03-06T02:21:50.347Z,12.15
2023-03-06T02:24:35.364Z,11.70
2023-03-06T02:27:03.888Z,10.93
2023-03-06T02:29:31.743Z,14.95
2023-03-06T02:32:02.024Z,11.50
2023-03-06T02:34:28.741Z,14.60
2023-03-06T02:37:00.141Z,11.90
2023-03-06T02:39:28.756Z,14.23
2023-03-06T02:41:55.502Z,12.80
2023-03-06T02:44:23.065Z,16.05
2023-03-06T02:46:49.941Z,13.43
2023-03-06T02:49:16.724Z,12.82
2023-03-06T02:51:43.356Z,17.80
2023-03-06T02:54:11.915Z,16.73
2023-03-06T02:56:38.552Z,12.80
2023-03-06T02:59:05.213Z,12.65
2023-03-06T03:01:31.925Z,16.55
2023-03-06T03:03:58.609Z,16.10
2023-03-06T03:06:25.331Z,15.38
2023-03-06T03:08:52.964Z,16.30
2023-03-06T03:11:20.491Z,13.30
2023-03-06T03:13:47.366Z,14.38
2023-03-06T03:16:19.497Z,15.25
2023-03-06T03:18:47.865Z,16.30
2023-03-06T03:21:16.618Z,15.07
2023-03-06T03:23:44.265Z,13.88
2023-03-06T03:26:18.635Z,14.55
2023-03-06T03:28:52.851Z,13.93
2023-03-06T03:31:21.292Z,19.52
2023-03-06T03:33:47.979Z,13.85
2023-03-06T03:36:14.714Z,16.00
2023-03-06T03:38:45.059Z,14.38
2023-03-06T03:41:11.948Z,20.45
2023-03-06T03:43:38.643Z,16.95
2023-03-06T03:46:06.057Z,14.52
2023-03-06T03:48:32.954Z,15.60
2023-03-06T03:51:08.569Z,14.93
2023-03-06T03:53:39.117Z,18.63
2023-03-06T03:56:06.998Z,14.75
2023-03-06T03:58:38.523Z,15.20
2023-03-06T04:01:05.596Z,14.32
2023-03-06T04:03:32.781Z,14.68
2023-03-06T04:05:59.939Z,11.27
2023-03-06T04:08:27.837Z,14.48
2023-03-06T04:10:54.971Z,17.55
2023-03-06T04:13:23.447Z,10.15
2023-03-06T04:15:52.499Z,19.38
2023-03-06T04:18:21.780Z,13.15
2023-03-06T04:20:49.561Z,15.27
2023-03-06T04:23:19.253Z,15.30
2023-03-06T04:25:46.549Z,19.58
2023-03-06T04:28:13.647Z,16.90
2023-03-06T04:30:40.522Z,17.67
2023-03-06T04:33:07.538Z,19.63
2023-03-06T04:35:34.789Z,15.35
2023-03-06T04:38:06.297Z,12.45
2023-03-06T04:40:34.923Z,17.30
2023-03-06T04:43:02.464Z,16.63
2023-03-06T04:45:29.788Z,14.57
2023-03-06T04:47:56.602Z,12.82
2023-03-06T04:50:24.104Z,14.10
2023-03-06T04:52:51.265Z,14.05
2023-03-06T04:55:18.807Z,22.80
2023-03-06T04:57:47.218Z,16.38
2023-03-06T05:00:25.200Z,15.23
2023-03-06T05:02:52.529Z,19.30
2023-03-06T05:05:19.537Z,18.95
2023-03-06T05:07:46.205Z,16.38
2023-03-06T05:10:16.566Z,19.63
2023-03-06T05:12:43.439Z,13.48
2023-03-06T05:15:11.406Z,18.45
2023-03-06T05:17:38.666Z,20.45
2023-03-06T05:20:08.064Z,16.85
2023-03-06T05:22:34.796Z,21.40
2023-03-06T05:25:01.550Z,21.20
2023-03-06T05:27:28.658Z,23.65
2023-03-06T05:29:55.476Z,26.75
2023-03-06T05:32:22.382Z,23.30
2023-03-06T05:34:49.648Z,29.27
2023-03-06T05:37:16.558Z,19.23
2023-03-06T05:39:43.332Z,20.63
2023-03-06T05:42:10.168Z,24.65
2023-03-06T05:44:37.202Z,27.95
2023-03-06T05:47:04.499Z,17.05
2023-03-06T05:49:35.792Z,19.08
2023-03-06T05:52:04.236Z,16.40
2023-03-06T05:54:31.866Z,16.80
2023-03-06T05:56:58.626Z,12.73
2023-03-06T05:59:29.108Z,14.50
2023-03-06T06:01:56.334Z,16.83
2023-03-06T06:04:24.626Z,13.63
2023-03-06T06:06:58.534Z,12.48
2023-03-06T06:09:25.892Z,16.05
2023-03-06T06:11:57.070Z,18.05
2023-03-06T06:14:23.961Z,20.52
2023-03-06T06:16:50.920Z,11.65
2023-03-06T06:19:20.469Z,17.40
2023-03-06T06:21:54.062Z,20.52
2023-03-06T06:24:22.985Z,18.48
2023-03-06T06:26:51.243Z,25.40
2023-03-06T06:29:17.878Z,18.00
2023-03-06T06:31:44.636Z,16.13
2023-03-06T06:34:12.393Z,23.08
2023-03-06T06:36:39.897Z,17.05
2023-03-06T06:39:07.748Z,15.25
2023-03-06T06:41:54.914Z,21.42
2023-03-06T06:44:21.820Z,18.15
2023-03-06T06:47:21.195Z,29.05
2023-03-06T06:49:36.775Z,22.83
2023-03-06T06:52:04.369Z,25.63
2023-03-06T06:54:31.016Z,20.08
2023-03-06T06:56:57.746Z,16.25
2023-03-06T06:59:24.379Z,19.85
2023-03-06T07:01:52.158Z,23.00
2023-03-06T07:04:19.377Z,17.65
2023-03-06T07:06:46.427Z,19.15
2023-03-06T07:09:13.753Z,18.95
2023-03-06T07:11:40.993Z,22.15
2023-03-06T07:14:07.981Z,16.20
2023-03-06T07:16:35.022Z,19.02
2023-03-06T07:19:01.758Z,19.23
2023-03-06T07:21:28.429Z,24.90
2023-03-06T07:23:57.337Z,21.05
2023-03-06T07:26:25.827Z,27.85
2023-03-06T07:28:55.502Z,21.52
2023-03-06T07:31:25.052Z,19.77
2023-03-06T07:33:52.868Z,23.88
2023-03-06T07:36:20.823Z,22.17
2023-03-06T07:38:48.240Z,25.63
2023-03-06T07:41:16.506Z,30.23
2023-03-06T07:43:44.859Z,28.33
2023-03-06T07:46:13.549Z,38.83
2023-03-06T07:48:40.368Z,33.33
2023-03-06T07:51:19.443Z,39.70
2023-03-06T07:53:46.510Z,39.38
2023-03-06T07:56:13.396Z,41.55
2023-03-06T07:58:42.413Z,40.83
2023-03-06T08:01:14.362Z,47.13
2023-03-06T08:03:41.123Z,33.00
2023-03-06T08:06:15.071Z,46.30
2023-03-06T08:08:43.108Z,38.17
2023-03-06T08:11:11.221Z,37.38
2023-03-06T08:13:38.400Z,36.92
2023-03-06T08:16:05.769Z,31.42
2023-03-06T08:18:32.492Z,34.63
2023-03-06T08:21:06.393Z,43.95
2023-03-06T08:23:34.293Z,38.72
2023-03-06T08:26:12.237Z,39.55
2023-03-06T08:28:39.273Z,40.13
2023-03-06T08:31:23.319Z,48.85
2023-03-06T08:33:50.310Z,40.92
2023-03-06T08:36:16.983Z,23.23
2023-03-06T08:38:43.718Z,41.75
2023-03-06T08:41:10.677Z,40.50
2023-03-06T08:43:37.479Z,42.45
2023-03-06T08:46:04.320Z,46.70
2023-03-06T08:48:31.426Z,37.13
2023-03-06T08:50:58.110Z,37.88
2023-03-06T08:53:40.453Z,46.25
2023-03-06T08:56:28.395Z,41.55
2023-03-06T08:58:56.510Z,44.08
2023-03-06T09:01:28.790Z,43.20
2023-03-06T09:03:57.220Z,43.03
2023-03-06T09:06:25.566Z,42.10
2023-03-06T09:08:53.101Z,38.22
2023-03-06T09:11:21.215Z,42.55
2023-03-06T09:13:48.105Z,42.83
2023-03-06T09:16:14.882Z,42.40
2023-03-06T09:18:41.919Z,45.80
2023-03-06T09:21:11.969Z,44.45
2023-03-06T09:23:39.605Z,32.00
2023-03-06T09:26:07.517Z,43.10
2023-03-06T09:28:39.258Z,41.40
2023-03-06T09:31:14.725Z,34.05
2023-03-06T09:33:41.661Z,41.75
2023-03-06T09:36:10.365Z,39.13
2023-03-06T09:38:37.158Z,36.78
2023-03-06T09:41:12.626Z,49.67
2023-03-06T09:43:46.113Z,34.65
2023-03-06T09:46:40.151Z,36.00
2023-03-06T09:49:37.509Z,38.45
2023-03-06T09:52:30.136Z,42.55
2023-03-06T09:55:00.178Z,36.45
2023-03-06T09:57:47.232Z,45.45
2023-03-06T10:00:16.058Z,37.30
2023-03-06T10:03:07.709Z,40.65
2023-03-06T10:05:50.983Z,34.40
2023-03-06T10:08:25.529Z,32.53
2023-03-06T10:11:03.992Z,20.80
2023-03-06T10:13:46.146Z,23.10
2023-03-06T10:16:19.527Z,22.05
2023-03-06T10:18:46.257Z,25.75
2023-03-06T10:21:29.694Z,33.22
2023-03-06T10:24:28.575Z,29.40
2023-03-06T10:27:11.336Z,28.35
2023-03-06T10:30:02.250Z,29.70
2023-03-06T10:32:49.285Z,30.95
2023-03-06T10:35:22.926Z,28.40
2023-03-06T10:37:49.675Z,33.70
2023-03-06T10:40:20.347Z,23.77
2023-03-06T10:42:47.064Z,19.52
2023-03-06T10:45:15.600Z,18.30
2023-03-06T10:47:42.626Z,22.58
2023-03-06T10:50:27.069Z,21.55
2023-03-06T10:53:06.085Z,25.27
2023-03-06T10:55:34.922Z,20.02
2023-03-06T10:58:24.683Z,22.92
2023-03-06T11:01:26.907Z,20.23
2023-03-06T11:03:54.141Z,19.27
2023-03-06T11:06:37.886Z,17.98
2023-03-06T11:09:36.997Z,18.73
2023-03-06T11:12:23.520Z,17.70
2023-03-06T11:15:15.171Z,21.58
2023-03-06T11:18:24.097Z,18.70
2023-03-06T11:20:53.269Z,17.20
2023-03-06T11:23:38.779Z,17.35
2023-03-06T11:26:18.500Z,18.02
2023-03-06T11:28:54.227Z,17.95
2023-03-06T11:31:26.794Z,18.08
2023-03-06T11:34:10.058Z,18.63
2023-03-06T11:36:48.979Z,16.98
2023-03-06T11:39:43.706Z,20.23
2023-03-06T11:42:34.761Z,18.25
2023-03-06T11:45:27.472Z,16.85
2023-03-06T11:48:16.641Z,17.10
2023-03-06T11:50:50.340Z,20.65
2023-03-06T11:53:28.983Z,11.80
2023-03-06T11:55:59.423Z,21.10
2023-03-06T11:58:38.317Z,15.48
2023-03-06T12:01:32.081Z,15.40
2023-03-06T12:04:32.255Z,18.60
2023-03-06T12:07:11.008Z,14.50
2023-03-06T12:09:50.058Z,14.93
2023-03-06T12:12:37.024Z,17.02
2023-03-06T12:15:15.896Z,17.08
2023-03-06T12:17:51.876Z,13.77
2023-03-06T12:20:35.217Z,10.93
2023-03-06T12:23:22.689Z,11.68
2023-03-06T12:26:42.468Z,11.75
2023-03-06T12:29:28.584Z,11.43
2023-03-06T12:32:18.874Z,12.02
2023-03-06T12:34:54.588Z,13.15
2023-03-06T12:37:26.930Z,18.80
2023-03-06T12:40:21.458Z,18.63
2023-03-06T12:43:27.145Z,16.30
2023-03-06T12:46:16.068Z,15.45
2023-03-06T12:48:48.857Z,15.20
2023-03-06T12:51:18.357Z,15.38
2023-03-06T12:53:45.512Z,16.38
2023-03-06T12:56:15.631Z,17.95
2023-03-06T12:58:54.973Z,14.75
2023-03-06T13:01:43.047Z,21.00
2023-03-06T13:04:31.883Z,16.60
2023-03-06T13:07:18.738Z,19.52
2023-03-06T13:10:06.816Z,16.85
2023-03-06T13:12:51.414Z,16.15
2023-03-06T13:15:37.731Z,16.52
2023-03-06T13:18:42.858Z,14.85
2023-03-06T13:21:48.095Z,16.48
2023-03-06T13:24:19.295Z,11.07
2023-03-06T13:26:45.911Z,12.23
2023-03-06T13:29:37.388Z,9.98
2023-03-06T13:32:03.997Z,11.38
2023-03-06T13:34:37.270Z,9.45
2023-03-06T13:37:25.083Z,8.32
2023-03-06T13:40:01.646Z,8.68
2023-03-06T13:42:29.258Z,8.60
2023-03-06T13:44:57.624Z,7.80
2023-03-06T13:48:02.506Z,12.40
2023-03-06T13:50:28.663Z,9.18
2023-03-06T13:53:13.666Z,11.35
2023-03-06T13:55:52.158Z,9.32
2023-03-06T13:58:38.707Z,8.68
2023-03-06T14:01:26.810Z,8.50
2023-03-06T14:04:26.161Z,10.02
2023-03-06T14:07:10.021Z,10.57
2023-03-06T14:09:48.594Z,8.32
2023-03-06T14:12:32.209Z,11.38
2023-03-06T14:15:01.793Z,11.02
2023-03-06T14:17:33.887Z,12.23
2023-03-06T14:20:14.141Z,14.50
2023-03-06T14:22:40.860Z,11.38
2023-03-06T14:25:17.128Z,11.60
2023-03-06T14:27:48.687Z,15.35
2023-03-06T14:30:25.391Z,12.00
2023-03-06T14:32:55.526Z,10.00
2023-03-06T14:35:34.403Z,9.00
2023-03-06T14:38:04.566Z,12.60
2023-03-06T14:40:43.333Z,11.50
2023-03-06T14:43:20.589Z,13.70
2023-03-06T14:46:00.763Z,9.52
2023-03-06T14:48:44.405Z,6.45
2023-03-06T14:51:18.806Z,8.95
2023-03-06T14:53:46.981Z,6.43
2023-03-06T14:56:18.868Z,6.55
2023-03-06T14:58:55.117Z,4.72
2023-03-06T15:01:32.725Z,4.85
2023-03-06T15:04:00.931Z,4.63
2023-03-06T15:06:37.829Z,3.90
2023-03-06T15:09:20.838Z,2.78
2023-03-06T15:12:20.711Z,2.10
2023-03-06T15:15:18.249Z,4.55
2023-03-06T15:17:48.490Z,3.30
2023-03-06T15:20:42.038Z,5.68
2023-03-06T15:23:21.126Z,4.85
2023-03-06T15:25:56.081Z,3.45
2023-03-06T15:28:37.127Z,4.18
2023-03-06T15:31:24.848Z,5.88
2023-03-06T15:34:06.910Z,6.15
2023-03-06T15:36:41.011Z,5.10
2023-03-06T15:39:33.788Z,7.72
2023-03-06T15:42:20.253Z,5.47
2023-03-06T15:44:49.855Z,3.47
2023-03-06T15:47:20.302Z,4.90
2023-03-06T15:49:49.054Z,7.72
2023-03-06T15:52:15.819Z,3.53
2023-03-06T15:54:42.890Z,4.05
2023-03-06T15:57:18.626Z,3.83
2023-03-06T15:59:45.932Z,4.65
2023-03-06T16:02:18.521Z,4.43
2023-03-06T16:04:46.703Z,4.45
2023-03-06T16:07:16.523Z,8.45
2023-03-06T16:09:43.520Z,4.22
2023-03-06T16:12:20.841Z,4.88
2023-03-06T16:14:48.480Z,3.47
2023-03-06T16:17:15.784Z,4.43
2023-03-06T16:19:43.081Z,5.15
2023-03-06T16:22:09.847Z,4.75
2023-03-06T16:24:37.265Z,4.07
2023-03-06T16:27:04.320Z,5.18
2023-03-06T16:29:31.286Z,4.07
2023-03-06T16:31:58.903Z,3.63
2023-03-06T16:34:28.514Z,3.30
2023-03-06T16:36:55.128Z,3.78
2023-03-06T16:39:23.262Z,4.40
2023-03-06T16:41:50.084Z,3.67
2023-03-06T16:44:17.408Z,8.73
2023-03-06T16:46:47.014Z,5.63
2023-03-06T16:49:16.858Z,3.28
2023-03-06T16:51:43.575Z,9.35
2023-03-06T16:54:10.204Z,17.67
2023-03-06T16:56:36.875Z,15.55
2023-03-06T16:59:03.527Z,27.02
2023-03-06T17:01:30.257Z,25.90
2023-03-06T17:03:57.152Z,27.83
2023-03-06T17:06:23.849Z,24.92
2023-03-06T17:08:51.039Z,32.75
2023-03-06T17:11:20.207Z,28.08
2023-03-06T17:13:48.533Z,25.52
2023-03-06T17:16:16.836Z,28.98
2023-03-06T17:18:44.760Z,25.38
2023-03-06T17:21:12.165Z,20.73
2023-03-06T17:23:38.989Z,26.58
2023-03-06T17:26:08.779Z,28.52
2023-03-06T17:28:37.732Z,28.27
2023-03-06T17:31:17.658Z,27.67
2023-03-06T17:33:44.560Z,29.88
2023-03-06T17:36:12.646Z,29.92
2023-03-06T17:38:42.869Z,27.70
2023-03-06T17:41:10.712Z,31.20
2023-03-06T17:43:38.720Z,27.70
2023-03-06T17:46:07.190Z,25.08
2023-03-06T17:48:34.396Z,28.45
2023-03-06T17:51:02.903Z,27.17
2023-03-06T17:53:29.706Z,27.40
2023-03-06T17:55:59.679Z,27.48
2023-03-06T17:58:27.162Z,27.48
2023-03-06T18:00:54.053Z,30.63
2023-03-06T18:03:20.983Z,30.95
2023-03-06T18:05:47.656Z,28.48
2023-03-06T18:08:14.381Z,35.53
2023-03-06T18:10:41.663Z,30.67
2023-03-06T18:13:09.340Z,34.80
2023-03-06T18:15:41.027Z,28.60
2023-03-06T18:18:08.359Z,33.58
2023-03-06T18:20:41.042Z,25.83
2023-03-06T18:23:07.888Z,35.22
2023-03-06T18:25:37.851Z,28.52
2023-03-06T18:28:06.521Z,31.85
2023-03-06T18:30:38.109Z,34.28
2023-03-06T18:33:04.981Z,33.55
2023-03-06T18:35:31.897Z,32.30
2023-03-06T18:37:58.533Z,27.70
2023-03-06T18:40:25.292Z,33.92
2023-03-06T18:42:53.122Z,33.83
2023-03-06T18:45:21.123Z,31.90
2023-03-06T18:47:47.862Z,31.60
2023-03-06T18:50:17.452Z,29.40
2023-03-06T18:52:44.966Z,29.95
2023-03-06T18:55:12.485Z,29.38
2023-03-06T18:57:39.288Z,33.78
2023-03-06T19:00:07.117Z,32.40
2023-03-06T19:02:34.082Z,32.90
2023-03-06T19:05:00.717Z,37.80
2023-03-06T19:07:27.490Z,35.45
2023-03-06T19:09:54.391Z,41.65
2023-03-06T19:12:21.114Z,35.63
2023-03-06T19:14:47.878Z,31.60
2023-03-06T19:17:15.726Z,37.42
2023-03-06T19:19:42.392Z,33.28
2023-03-06T19:22:09.051Z,34.45
2023-03-06T19:24:35.857Z,36.05
2023-03-06T19:27:02.599Z,36.88
2023-03-06T19:29:29.347Z,38.38
2023-03-06T19:31:57.203Z,32.58
2023-03-06T19:34:24.112Z,34.50
2023-03-06T19:36:51.008Z,39.63
2023-03-06T19:39:17.772Z,34.13
2023-03-06T19:41:46.931Z,41.00
2023-03-06T19:44:14.583Z,37.88
2023-03-06T19:46:41.350Z,31.70
2023-03-06T19:49:12.089Z,35.65
2023-03-06T19:51:38.975Z,30.38
2023-03-06T19:54:05.874Z,31.30
2023-03-06T19:56:33.825Z,36.05
2023-03-06T19:59:00.593Z,27.48
2023-03-06T20:01:28.096Z,32.88
2023-03-06T20:03:59.339Z,34.55
2023-03-06T20:06:33.852Z,35.33
2023-03-06T20:09:01.909Z,43.08
2023-03-06T20:11:30.040Z,35.65
2023-03-06T20:14:00.908Z,40.05
2023-03-06T20:16:29.138Z,32.05
2023-03-06T20:18:59.052Z,30.83
2023-03-06T20:21:27.509Z,28.52
2023-03-06T20:23:56.952Z,27.25
2023-03-06T20:26:24.910Z,29.88
2023-03-06T20:28:51.604Z,30.40
2023-03-06T20:31:20.422Z,32.85
2023-03-06T20:33:49.098Z,27.45
2023-03-06T20:36:18.373Z,36.28
2023-03-06T20:38:45.396Z,29.83
2023-03-06T20:41:24.216Z,29.35
2023-03-06T20:43:51.177Z,23.88
2023-03-06T20:46:19.214Z,28.15
2023-03-06T20:48:48.683Z,35.70
2023-03-06T20:51:19.510Z,33.83
2023-03-06T20:53:47.558Z,34.13
2023-03-06T20:56:15.822Z,33.58
2023-03-06T20:58:42.988Z,25.60
2023-03-06T21:01:09.782Z,29.13
2023-03-06T21:03:36.477Z,31.20
2023-03-06T21:06:04.530Z,31.63
2023-03-06T21:08:31.464Z,38.50
2023-03-06T21:11:00.207Z,34.60
2023-03-06T21:13:26.887Z,27.77
2023-03-06T21:15:53.702Z,32.25
2023-03-06T21:18:20.462Z,29.95
2023-03-06T21:20:50.166Z,32.42
2023-03-06T21:23:17.544Z,36.15
2023-03-06T21:25:52.124Z,32.22
2023-03-06T21:28:19.175Z,30.20
2023-03-06T21:30:46.070Z,38.20
2023-03-06T21:33:13.420Z,28.40
2023-03-06T21:35:40.904Z,25.80
2023-03-06T21:38:09.341Z,30.92
2023-03-06T21:40:36.170Z,26.67
2023-03-06T21:43:03.522Z,31.95
2023-03-06T21:45:30.767Z,35.08
2023-03-06T21:48:00.330Z,37.08
2023-03-06T21:50:27.782Z,30.00
2023-03-06T21:52:56.020Z,26.77
2023-03-06T21:55:22.962Z,33.97
2023-03-06T21:57:51.984Z,28.10
2023-03-06T22:00:19.717Z,26.98
2023-03-06T22:02:47.041Z,27.77
2023-03-06T22:05:13.849Z,31.02
2023-03-06T22:07:42.409Z,33.30
2023-03-06T22:10:15.868Z,33.80
2023-03-06T22:12:42.557Z,30.75
2023-03-06T22:15:09.833Z,29.40
2023-03-06T22:17:36.540Z,33.97
2023-03-06T22:20:04.320Z,32.03
2023-03-06T22:22:31.089Z,29.73
2023-03-06T22:24:58.140Z,35.20
2023-03-06T22:27:24.898Z,32.38
2023-03-06T22:29:52.657Z,29.77
2023-03-06T22:32:20.549Z,34.58
2023-03-06T22:34:47.349Z,30.33
2023-03-06T22:37:14.155Z,39.63
2023-03-06T22:39:40.820Z,38.00
2023-03-06T22:42:07.929Z,29.95
2023-03-06T22:44:34.629Z,34.55
2023-03-06T22:47:01.384Z,34.42
2023-03-06T22:49:28.084Z,32.47
2023-03-06T22:51:54.793Z,38.15
2023-03-06T22:54:21.454Z,31.38
2023-03-06T22:56:48.100Z,35.13
2023-03-06T22:59:14.737Z,38.13
2023-03-06T23:01:41.905Z,32.72
2023-03-06T23:04:11.270Z,25.98
2023-03-06T23:06:40.469Z,32.13
2023-03-06T23:09:21.390Z,30.77
2023-03-06T23:12:08.937Z,27.20
2023-03-06T23:14:54.671Z,34.22
2023-03-06T23:17:40.172Z,36.25
2023-03-06T23:20:25.784Z,31.38
2023-03-06T23:23:11.290Z,30.95
2023-03-06T23:25:40.521Z,27.08
2023-03-06T23:28:07.644Z,21.80
2023-03-06T23:30:34.267Z,28.25
2023-03-06T23:33:00.911Z,27.52
2023-03-06T23:35:27.705Z,27.40
2023-03-06T23:37:54.506Z,31.08
2023-03-06T23:40:22.033Z,31.02
2023-03-06T23:42:48.748Z,28.98
2023-03-06T23:45:15.700Z,32.55
2023-03-06T23:47:42.401Z,27.63
2023-03-06T23:50:09.671Z,28.60
2023-03-06T23:52:36.429Z,36.65
2023-03-06T23:55:03.101Z,24.25
2023-03-06T23:57:30.729Z,31.98
2023-03-06T23:59:57.429Z,27.25
